createdAt,value
2023-04-18T00:00:12.365Z,1.70
2023-04-18T00:02:40.011Z,1.33
2023-04-18T00:05:08.066Z,1.10
2023-04-18T00:07:35.569Z,1.33
2023-04-18T00:10:04.018Z,1.87
2023-04-18T00:12:31.884Z,1.53
2023-04-18T00:14:58.944Z,1.77
2023-04-18T00:17:27.688Z,1.00
2023-04-18T00:19:56.337Z,1.40
2023-04-18T00:22:23.375Z,1.47
2023-04-18T00:24:51.529Z,3.60
2023-04-18T00:27:18.943Z,1.80
2023-04-18T00:29:45.791Z,1.70
2023-04-18T00:32:13.130Z,1.60
2023-04-18T00:34:40.534Z,2.53
2023-04-18T00:37:08.137Z,1.10
2023-04-18T00:39:35.961Z,5.63
2023-04-18T00:42:03.674Z,1.00
2023-04-18T00:44:31.519Z,1.90
2023-04-18T00:46:58.726Z,1.00
2023-04-18T00:49:26.918Z,1.00
2023-04-18T00:51:57.693Z,1.00
2023-04-18T00:54:25.969Z,1.20
2023-04-18T00:56:53.207Z,0.80
2023-04-18T00:59:22.025Z,0.93
2023-04-18T01:01:48.961Z,1.30
2023-04-18T01:04:16.332Z,1.13
2023-04-18T01:06:45.622Z,1.37
2023-04-18T01:09:13.865Z,1.40
2023-04-18T01:11:40.830Z,3.67
2023-04-18T01:14:08.437Z,1.83
2023-04-18T01:16:36.891Z,1.20
2023-04-18T01:19:04.838Z,1.43
2023-04-18T01:21:37.359Z,1.00
2023-04-18T01:24:09.408Z,0.97
2023-04-18T01:26:36.391Z,0.90
2023-04-18T01:29:03.414Z,1.80
2023-04-18T01:31:30.431Z,1.33
2023-04-18T01:33:57.386Z,2.10
2023-04-18T01:36:24.448Z,1.57
2023-04-18T01:38:51.359Z,1.47
2023-04-18T01:41:18.265Z,1.23
2023-04-18T01:43:46.044Z,1.00
2023-04-18T01:46:13.041Z,1.10
2023-04-18T01:48:39.949Z,1.47
2023-04-18T01:51:06.919Z,1.40
2023-04-18T01:53:33.802Z,1.30
2023-04-18T01:56:00.770Z,1.30
2023-04-18T01:58:27.684Z,1.00
2023-04-18T02:00:55.138Z,1.67
2023-04-18T02:03:22.250Z,1.13
2023-04-18T02:05:52.464Z,1.27
2023-04-18T02:08:19.628Z,1.33
2023-04-18T02:10:46.630Z,0.90
2023-04-18T02:13:15.075Z,1.20
2023-04-18T02:15:45.008Z,1.17
2023-04-18T02:18:12.323Z,1.20
2023-04-18T02:20:39.919Z,1.93
2023-04-18T02:23:07.097Z,1.30
2023-04-18T02:25:33.979Z,1.93
2023-04-18T02:28:00.990Z,1.60
2023-04-18T02:30:28.343Z,0.97
2023-04-18T02:32:59.229Z,1.53
2023-04-18T02:35:27.328Z,1.40
2023-04-18T02:37:54.228Z,1.40
2023-04-18T02:40:21.092Z,1.10
2023-04-18T02:42:48.049Z,0.90
2023-04-18T02:45:15.428Z,1.03
2023-04-18T02:47:53.709Z,1.17
2023-04-18T02:50:22.007Z,1.23
2023-04-18T02:52:49.198Z,1.80
2023-04-18T02:55:16.216Z,1.33
2023-04-18T02:57:43.195Z,0.93
2023-04-18T03:00:10.617Z,1.17
2023-04-18T03:02:37.593Z,1.00
2023-04-18T03:05:05.601Z,1.20
2023-04-18T03:07:32.693Z,1.03
2023-04-18T03:09:59.987Z,1.40
2023-04-18T03:12:26.982Z,1.20
2023-04-18T03:14:53.866Z,2.30
2023-04-18T03:17:20.838Z,1.93
2023-04-18T03:19:47.799Z,1.10
2023-04-18T03:22:15.886Z,1.10
2023-04-18T03:24:42.881Z,1.40
2023-04-18T03:27:09.804Z,0.90
2023-04-18T03:29:36.834Z,1.87
2023-04-18T03:32:03.842Z,1.70
2023-04-18T03:34:30.884Z,1.50
2023-04-18T03:36:57.818Z,1.77
2023-04-18T03:39:24.778Z,2.00
2023-04-18T03:41:52.250Z,1.83
2023-04-18T03:44:19.166Z,2.23
2023-04-18T03:46:46.378Z,2.83
2023-04-18T03:49:13.288Z,3.10
2023-04-18T03:51:47.895Z,2.40
2023-04-18T03:54:16.135Z,2.33
2023-04-18T03:56:43.256Z,2.37
2023-04-18T03:59:10.883Z,1.80
2023-04-18T04:01:37.861Z,2.03
2023-04-18T04:04:05.012Z,1.80
2023-04-18T04:06:32.420Z,2.27
2023-04-18T04:08:59.341Z,2.73
2023-04-18T04:11:26.795Z,1.70
2023-04-18T04:13:53.713Z,2.27
2023-04-18T04:16:20.896Z,2.77
2023-04-18T04:18:47.824Z,1.83
2023-04-18T04:21:14.638Z,2.20
2023-04-18T04:23:42.448Z,3.27
2023-04-18T04:26:09.749Z,2.03
2023-04-18T04:28:36.694Z,2.53
2023-04-18T04:31:08.084Z,2.50
2023-04-18T04:33:35.790Z,2.40
2023-04-18T04:36:02.658Z,3.00
2023-04-18T04:39:20.163Z,3.73
2023-04-18T04:41:47.154Z,1.87
2023-04-18T04:44:17.658Z,2.73
2023-04-18T04:46:44.905Z,3.77
2023-04-18T04:49:12.166Z,3.00
2023-04-18T04:51:40.044Z,4.27
2023-04-18T04:54:07.084Z,4.97
2023-04-18T04:56:34.044Z,3.17
2023-04-18T04:59:01.030Z,3.27
2023-04-18T05:01:27.948Z,2.47
2023-04-18T05:03:54.965Z,2.30
2023-04-18T05:06:22.732Z,2.23
2023-04-18T05:08:50.649Z,3.40
2023-04-18T05:11:18.192Z,3.43
2023-04-18T05:13:45.186Z,1.80
2023-04-18T05:16:12.234Z,2.10
2023-04-18T05:18:41.102Z,2.10
2023-04-18T05:21:08.274Z,2.27
2023-04-18T05:23:36.954Z,2.10
2023-04-18T05:26:05.194Z,3.47
2023-04-18T05:28:32.527Z,1.67
2023-04-18T05:31:02.246Z,2.40
2023-04-18T05:33:30.729Z,2.53
2023-04-18T05:35:58.308Z,2.40
2023-04-18T05:38:25.532Z,2.43
2023-04-18T05:40:55.427Z,3.00
2023-04-18T05:43:23.038Z,3.17
2023-04-18T05:45:52.494Z,4.80
2023-04-18T05:48:19.957Z,2.80
2023-04-18T05:50:46.817Z,1.90
2023-04-18T05:53:13.731Z,2.30
2023-04-18T05:55:41.109Z,1.60
2023-04-18T05:58:08.090Z,2.00
2023-04-18T06:00:35.258Z,1.67
2023-04-18T06:03:02.353Z,1.13
2023-04-18T06:05:30.047Z,2.03
2023-04-18T06:07:57.286Z,1.67
2023-04-18T06:10:24.327Z,2.10
2023-04-18T06:12:51.165Z,2.53
2023-04-18T06:15:18.154Z,1.77
2023-04-18T06:17:45.078Z,2.00
2023-04-18T06:20:12.089Z,2.40
2023-04-18T06:22:38.878Z,2.40
2023-04-18T06:25:06.291Z,2.70
2023-04-18T06:27:33.290Z,1.40
2023-04-18T06:30:00.245Z,4.37
2023-04-18T06:32:27.534Z,2.67
2023-04-18T06:34:54.523Z,2.90
2023-04-18T06:37:21.568Z,3.50
2023-04-18T06:39:48.657Z,3.43
2023-04-18T06:42:15.646Z,3.13
2023-04-18T06:44:43.198Z,2.23
2023-04-18T06:47:13.384Z,3.27
2023-04-18T06:49:40.529Z,3.57
2023-04-18T06:52:07.511Z,1.77
2023-04-18T06:54:38.001Z,2.73
2023-04-18T06:57:04.964Z,4.40
2023-04-18T06:59:31.837Z,2.37
2023-04-18T07:01:58.773Z,2.23
2023-04-18T07:04:25.913Z,1.60
2023-04-18T07:06:54.573Z,2.60
2023-04-18T07:09:22.576Z,2.20
2023-04-18T07:11:50.791Z,2.03
2023-04-18T07:14:19.838Z,2.10
2023-04-18T07:16:47.140Z,1.73
2023-04-18T07:19:14.173Z,2.90
2023-04-18T07:21:43.513Z,2.30
2023-04-18T07:24:11.329Z,2.20
2023-04-18T07:26:38.779Z,1.77
2023-04-18T07:29:08.477Z,2.40
2023-04-18T07:31:35.668Z,2.13
2023-04-18T07:34:02.777Z,2.33
2023-04-18T07:36:29.899Z,1.93
2023-04-18T07:38:56.820Z,2.27
2023-04-18T07:41:23.716Z,1.87
2023-04-18T07:43:50.607Z,1.90
2023-04-18T07:46:17.605Z,2.37
2023-04-18T07:48:44.686Z,2.27
2023-04-18T07:51:12.113Z,3.10
2023-04-18T07:53:41.168Z,3.63
2023-04-18T07:56:08.140Z,2.10
2023-04-18T07:58:35.412Z,1.30
2023-04-18T08:01:02.768Z,2.97
2023-04-18T08:03:30.190Z,1.90
2023-04-18T08:06:16.759Z,2.27
2023-04-18T08:08:44.337Z,2.40
2023-04-18T08:11:11.311Z,1.47
2023-04-18T08:13:38.458Z,1.70
2023-04-18T08:16:05.577Z,1.17
2023-04-18T08:18:32.440Z,1.83
2023-04-18T08:20:59.305Z,2.07
2023-04-18T08:23:26.193Z,2.70
2023-04-18T08:25:53.072Z,1.93
2023-04-18T08:28:20.021Z,1.63
2023-04-18T08:30:50.378Z,2.50
2023-04-18T08:33:18.806Z,3.10
2023-04-18T08:35:46.007Z,2.93
2023-04-18T08:38:13.381Z,3.63
2023-04-18T08:40:40.549Z,2.97
2023-04-18T08:43:12.689Z,3.30
2023-04-18T08:45:40.680Z,2.47
2023-04-18T08:48:12.364Z,3.40
2023-04-18T08:50:40.093Z,2.87
2023-04-18T08:53:07.747Z,3.10
2023-04-18T08:55:35.465Z,3.83
2023-04-18T08:58:04.882Z,5.50
2023-04-18T09:00:32.661Z,2.60
2023-04-18T09:02:59.833Z,2.40
2023-04-18T09:05:27.550Z,4.70
2023-04-18T09:07:56.639Z,2.87
2023-04-18T09:10:34.948Z,3.20
2023-04-18T09:13:04.258Z,2.77
2023-04-18T09:15:31.539Z,3.17
2023-04-18T09:18:02.244Z,3.63
2023-04-18T09:20:38.513Z,2.37
2023-04-18T09:23:11.473Z,2.60
2023-04-18T09:25:44.243Z,2.07
2023-04-18T09:28:29.465Z,3.17
2023-04-18T09:31:12.001Z,1.80
2023-04-18T09:33:43.079Z,2.87
2023-04-18T09:36:23.615Z,3.00
2023-04-18T09:38:55.356Z,3.07
2023-04-18T09:41:23.744Z,3.50
2023-04-18T09:43:52.043Z,3.90
2023-04-18T09:46:19.099Z,3.50
2023-04-18T09:48:45.982Z,4.97
2023-04-18T09:51:16.879Z,4.87
2023-04-18T09:53:45.156Z,9.90
2023-04-18T09:56:25.669Z,8.17
2023-04-18T09:59:01.623Z,11.50
2023-04-18T10:01:29.622Z,12.40
2023-04-18T10:03:58.105Z,4.20
2023-04-18T10:06:30.438Z,21.17
2023-04-18T10:08:57.992Z,11.13
2023-04-18T10:11:25.228Z,13.30
2023-04-18T10:13:57.511Z,14.90
2023-04-18T10:16:26.030Z,6.30
2023-04-18T10:18:53.097Z,14.13
2023-04-18T10:21:21.538Z,7.30
2023-04-18T10:23:49.278Z,8.17
2023-04-18T10:26:16.834Z,14.70
2023-04-18T10:28:58.032Z,30.27
2023-04-18T10:31:28.340Z,9.37
2023-04-18T10:36:28.686Z,14.87
2023-04-18T10:39:19.920Z,14.17
2023-04-18T10:41:51.409Z,15.20
2023-04-18T10:44:22.183Z,30.40
2023-04-18T10:46:52.112Z,10.90
2023-04-18T10:49:20.010Z,17.80
2023-04-18T10:51:48.100Z,9.43
2023-04-18T10:54:28.098Z,21.80
2023-04-18T10:56:56.616Z,12.90
2023-04-18T10:59:25.075Z,5.47
2023-04-18T11:02:14.986Z,25.43
2023-04-18T11:04:41.904Z,30.93
2023-04-18T11:07:08.907Z,24.70
2023-04-18T11:09:35.764Z,27.23
2023-04-18T11:12:07.636Z,14.90
2023-04-18T11:14:42.142Z,15.73
2023-04-18T11:17:23.833Z,9.17
2023-04-18T11:19:59.361Z,11.73
2023-04-18T11:22:26.884Z,34.87
2023-04-18T11:25:08.411Z,31.00
2023-04-18T11:27:40.546Z,6.03
2023-04-18T11:30:08.267Z,14.93
2023-04-18T11:32:36.106Z,26.13
2023-04-18T11:35:06.045Z,7.20
2023-04-18T11:37:33.117Z,13.23
2023-04-18T11:40:00.168Z,35.70
2023-04-18T11:42:28.530Z,8.80
2023-04-18T11:44:55.683Z,23.63
2023-04-18T11:47:27.704Z,41.10
2023-04-18T11:50:08.516Z,20.63
2023-04-18T11:52:36.730Z,17.93
2023-04-18T11:55:24.973Z,29.23
2023-04-18T11:57:53.427Z,14.90
2023-04-18T12:00:34.590Z,29.00
2023-04-18T12:03:04.821Z,19.33
2023-04-18T12:05:34.171Z,20.90
2023-04-18T12:08:18.222Z,6.70
2023-04-18T12:10:52.939Z,8.00
2023-04-18T12:13:26.053Z,6.47
2023-04-18T12:15:54.894Z,6.97
2023-04-18T12:18:24.584Z,10.87
2023-04-18T12:20:54.014Z,6.83
2023-04-18T12:23:39.114Z,10.10
2023-04-18T12:26:08.103Z,7.93
2023-04-18T12:28:35.631Z,8.17
2023-04-18T12:31:05.864Z,4.40
2023-04-18T12:33:33.181Z,12.00
2023-04-18T12:36:00.244Z,4.13
2023-04-18T12:38:27.523Z,9.13
2023-04-18T12:40:54.510Z,6.40
2023-04-18T12:43:21.400Z,2.07
2023-04-18T12:45:50.793Z,2.17
2023-04-18T12:48:17.714Z,2.60
2023-04-18T12:50:44.675Z,1.60
2023-04-18T12:53:15.352Z,2.53
2023-04-18T12:55:42.367Z,3.00
2023-04-18T12:58:09.476Z,2.67
2023-04-18T13:00:37.342Z,2.50
2023-04-18T13:03:05.081Z,2.27
2023-04-18T13:05:34.011Z,2.50
2023-04-18T13:10:31.982Z,1.83
2023-04-18T13:12:58.893Z,2.33
2023-04-18T13:15:27.646Z,2.63
2023-04-18T13:17:56.078Z,1.63
2023-04-18T13:20:23.256Z,2.70
2023-04-18T13:22:50.186Z,2.13
2023-04-18T13:25:17.195Z,2.70
2023-04-18T13:27:46.221Z,2.40
2023-04-18T13:30:13.475Z,3.10
2023-04-18T13:32:40.998Z,1.83
2023-04-18T13:35:11.285Z,4.00
2023-04-18T13:37:39.091Z,2.70
2023-04-18T13:40:07.034Z,2.37
2023-04-18T13:42:34.346Z,3.30
2023-04-18T13:45:01.236Z,2.07
2023-04-18T13:47:28.850Z,3.67
2023-04-18T13:49:56.887Z,3.00
2023-04-18T13:52:24.004Z,1.90
2023-04-18T13:54:50.907Z,2.20
2023-04-18T13:57:17.760Z,3.07
2023-04-18T13:59:44.675Z,2.43
2023-04-18T14:02:11.788Z,2.73
2023-04-18T14:04:39.036Z,2.77
2023-04-18T14:07:09.138Z,2.33
2023-04-18T14:09:36.160Z,2.53
2023-04-18T14:12:03.247Z,2.90
2023-04-18T14:14:30.308Z,2.70
2023-04-18T14:16:57.306Z,2.37
2023-04-18T14:19:24.362Z,2.30
2023-04-18T14:21:51.403Z,2.47
2023-04-18T14:24:18.360Z,1.90
2023-04-18T14:26:45.334Z,1.87
2023-04-18T14:29:12.559Z,2.97
2023-04-18T14:31:39.658Z,3.73
2023-04-18T14:34:08.309Z,2.00
2023-04-18T14:36:35.845Z,1.60
2023-04-18T14:39:03.435Z,2.20
2023-04-18T14:41:30.434Z,1.80
2023-04-18T14:43:57.260Z,2.30
2023-04-18T14:46:24.176Z,1.43
2023-04-18T14:48:51.106Z,1.57
2023-04-18T14:51:18.081Z,3.23
2023-04-18T14:53:45.548Z,2.80
2023-04-18T14:56:12.551Z,2.10
2023-04-18T14:58:39.564Z,1.87
2023-04-18T15:01:06.643Z,2.27
2023-04-18T15:03:34.017Z,2.30
2023-04-18T15:06:01.045Z,3.77
2023-04-18T15:08:28.130Z,3.13
2023-04-18T15:10:55.015Z,3.30
2023-04-18T15:13:22.069Z,2.60
2023-04-18T15:15:56.710Z,1.23
2023-04-18T15:18:23.839Z,2.13
2023-04-18T15:20:51.452Z,2.80
2023-04-18T15:23:18.369Z,2.90
2023-04-18T15:25:46.434Z,2.03
2023-04-18T15:28:13.991Z,1.60
2023-04-18T15:30:41.053Z,2.77
2023-04-18T15:33:08.491Z,2.20
2023-04-18T15:35:35.885Z,2.07
2023-04-18T15:38:02.972Z,2.30
2023-04-18T15:40:30.267Z,3.50
2023-04-18T15:42:59.613Z,2.80
2023-04-18T15:45:26.842Z,2.40
2023-04-18T15:47:53.990Z,2.10
2023-04-18T15:50:21.610Z,1.60
2023-04-18T15:52:48.603Z,2.10
2023-04-18T15:55:15.677Z,3.33
2023-04-18T15:57:42.709Z,2.70
2023-04-18T16:00:20.781Z,1.90
2023-04-18T16:02:47.799Z,2.10
2023-04-18T16:07:53.778Z,1.27
2023-04-18T16:10:20.888Z,3.37
2023-04-18T16:12:48.227Z,1.40
2023-04-18T16:15:15.224Z,1.13
2023-04-18T16:17:42.146Z,2.07
2023-04-18T16:20:09.430Z,1.83
2023-04-18T16:22:37.011Z,1.90
2023-04-18T16:25:04.750Z,2.60
2023-04-18T16:27:32.329Z,1.37
2023-04-18T16:29:59.328Z,2.87
2023-04-18T16:32:26.403Z,4.90
2023-04-18T16:34:53.396Z,2.73
2023-04-18T16:37:20.520Z,3.40
2023-04-18T16:39:47.568Z,3.00
2023-04-18T16:42:15.886Z,2.20
2023-04-18T16:44:44.712Z,17.97
2023-04-18T16:47:11.781Z,4.57
2023-04-18T16:49:38.904Z,4.40
2023-04-18T16:52:05.754Z,2.60
2023-04-18T16:54:32.806Z,18.80
2023-04-18T16:56:59.879Z,9.50
2023-04-18T16:59:26.937Z,1.90
2023-04-18T17:01:53.937Z,6.70
2023-04-18T17:04:21.583Z,7.63
2023-04-18T17:06:49.748Z,3.23
2023-04-18T17:09:19.672Z,2.60
2023-04-18T17:11:46.744Z,2.20
2023-04-18T17:14:14.118Z,6.40
2023-04-18T17:16:42.826Z,5.00
2023-04-18T17:19:11.109Z,2.70
2023-04-18T17:21:38.569Z,2.83
2023-04-18T17:24:15.695Z,13.40
2023-04-18T17:26:42.918Z,2.73
2023-04-18T17:29:09.748Z,2.97
2023-04-18T17:31:36.847Z,2.90
2023-04-18T17:34:03.758Z,2.13
2023-04-18T17:36:30.689Z,3.23
2023-04-18T17:39:05.461Z,2.70
2023-04-18T17:41:38.502Z,2.20
2023-04-18T17:44:07.444Z,2.00
2023-04-18T17:46:34.735Z,2.87
2023-04-18T17:49:02.252Z,2.80
2023-04-18T17:51:29.351Z,1.40
2023-04-18T17:53:56.438Z,1.40
2023-04-18T17:56:23.369Z,2.60
2023-04-18T17:58:53.721Z,1.87
2023-04-18T18:01:22.372Z,2.40
2023-04-18T18:03:49.779Z,1.67
2023-04-18T18:06:16.846Z,1.70
2023-04-18T18:08:43.912Z,2.00
2023-04-18T18:11:11.142Z,1.60
2023-04-18T18:13:40.709Z,1.80
2023-04-18T18:16:08.682Z,1.33
2023-04-18T18:18:36.305Z,1.47
2023-04-18T18:21:03.488Z,1.37
2023-04-18T18:23:30.474Z,1.90
2023-04-18T18:25:57.476Z,1.60
2023-04-18T18:28:24.640Z,1.83
2023-04-18T18:30:51.720Z,2.40
2023-04-18T18:33:21.504Z,1.83
2023-04-18T18:35:48.587Z,2.20
2023-04-18T18:38:15.823Z,1.57
2023-04-18T18:40:54.856Z,1.93
2023-04-18T18:43:26.297Z,1.97
2023-04-18T18:45:54.053Z,1.10
2023-04-18T18:48:21.423Z,1.63
2023-04-18T18:53:46.600Z,1.97
2023-04-18T18:59:01.677Z,1.10
2023-04-18T19:01:30.850Z,1.13
2023-04-18T19:04:09.232Z,1.93
2023-04-18T19:06:40.639Z,1.40
2023-04-18T19:12:28.231Z,1.50
2023-04-18T19:15:03.348Z,2.20
2023-04-18T19:17:40.754Z,1.27
2023-04-18T19:20:22.371Z,1.30
2023-04-18T19:34:22.586Z,2.03
2023-04-18T19:36:51.265Z,2.60
2023-04-18T19:45:37.211Z,2.10
2023-04-18T19:48:14.621Z,1.50
2023-04-18T19:56:58.580Z,1.90
2023-04-18T19:59:35.250Z,1.10
2023-04-18T20:02:05.695Z,1.40
2023-04-18T20:04:36.922Z,1.70
2023-04-18T20:07:04.311Z,1.70
2023-04-18T20:09:31.234Z,1.83
2023-04-18T20:12:00.601Z,1.80
2023-04-18T20:14:33.156Z,1.00
2023-04-18T20:17:03.334Z,1.70
2023-04-18T20:22:56.444Z,1.23
2023-04-18T20:25:23.454Z,2.20
2023-04-18T20:28:01.058Z,1.40
2023-04-18T20:30:36.811Z,2.20
2023-04-18T20:33:03.785Z,2.00
2023-04-18T20:35:31.488Z,1.90
2023-04-18T20:38:00.253Z,2.13
2023-04-18T20:40:28.140Z,1.63
2023-04-18T20:42:57.863Z,1.80
2023-04-18T20:45:25.206Z,1.97
2023-04-18T20:47:52.154Z,2.30
2023-04-18T20:50:20.424Z,1.73
2023-04-18T20:52:47.692Z,1.50
2023-04-18T20:55:16.690Z,1.53
2023-04-18T20:57:43.672Z,1.90
2023-04-18T21:00:11.843Z,1.63
2023-04-18T21:02:38.952Z,2.70
2023-04-18T21:05:06.191Z,1.30
2023-04-18T21:07:33.451Z,1.60
2023-04-18T21:10:00.418Z,1.83
2023-04-18T21:12:27.818Z,1.40
2023-04-18T21:14:54.827Z,1.30
2023-04-18T21:17:21.807Z,2.17
2023-04-18T21:19:49.602Z,1.90
2023-04-18T21:22:17.185Z,2.20
2023-04-18T21:24:45.106Z,1.40
2023-04-18T21:27:12.038Z,1.03
2023-04-18T21:29:39.086Z,1.20
2023-04-18T21:32:06.083Z,1.70
2023-04-18T21:34:33.095Z,1.33
2023-04-18T21:36:59.971Z,1.17
2023-04-18T21:39:27.442Z,1.77
2023-04-18T21:41:54.301Z,1.40
2023-04-18T21:44:21.273Z,1.50
2023-04-18T21:46:48.177Z,2.10
2023-04-18T21:49:15.349Z,1.23
2023-04-18T21:51:42.267Z,1.50
2023-04-18T21:54:09.164Z,1.90
2023-04-18T21:56:36.029Z,1.50
2023-04-18T21:59:03.059Z,1.60
2023-04-18T22:01:30.084Z,1.70
2023-04-18T22:03:57.180Z,1.40
2023-04-18T22:06:24.324Z,2.40
2023-04-18T22:08:51.623Z,2.40
2023-04-18T22:11:18.971Z,1.90
2023-04-18T22:13:47.387Z,1.37
2023-04-18T22:16:15.381Z,1.50
2023-04-18T22:18:42.358Z,1.50
2023-04-18T22:21:10.122Z,1.70
2023-04-18T22:23:37.121Z,1.50
2023-04-18T22:26:03.988Z,1.23
2023-04-18T22:28:31.028Z,1.10
2023-04-18T22:30:58.158Z,2.17
2023-04-18T22:33:25.352Z,1.50
2023-04-18T22:35:52.914Z,1.23
2023-04-18T22:38:19.844Z,1.67
2023-04-18T22:40:46.830Z,1.83
2023-04-18T22:43:13.730Z,2.80
2023-04-18T22:45:40.653Z,2.57
2023-04-18T22:48:11.408Z,1.90
2023-04-18T22:50:42.451Z,1.50
2023-04-18T22:53:10.737Z,0.93
2023-04-18T22:55:42.435Z,0.90
2023-04-18T22:58:10.458Z,2.40
2023-04-18T23:00:37.882Z,1.17
2023-04-18T23:03:05.236Z,1.60
2023-04-18T23:05:32.283Z,1.20
2023-04-18T23:08:00.319Z,1.47
2023-04-18T23:10:28.058Z,1.23
2023-04-18T23:12:54.937Z,1.20
2023-04-18T23:15:22.769Z,1.93
2023-04-18T23:17:52.442Z,2.80
2023-04-18T23:20:20.113Z,1.87
2023-04-18T23:22:49.937Z,2.30
2023-04-18T23:25:17.024Z,1.63
2023-04-18T23:27:44.057Z,1.47
2023-04-18T23:30:11.551Z,1.50
2023-04-18T23:32:38.448Z,2.40
2023-04-18T23:35:06.835Z,1.77
2023-04-18T23:37:33.806Z,1.43
2023-04-18T23:40:00.757Z,1.20
2023-04-18T23:42:27.737Z,1.47
2023-04-18T23:44:54.662Z,1.87
2023-04-18T23:47:21.992Z,1.70
2023-04-18T23:49:48.902Z,1.53
2023-04-18T23:52:15.808Z,1.53
2023-04-18T23:54:42.674Z,1.50
2023-04-18T23:57:09.572Z,0.90
2023-04-18T23:59:36.460Z,2.17
